sensor_id;sensor_type;location;lat;lon;timestamp;P1;durP1;ratioP1;P2;durP2;ratioP2
33160;SDS011;19522;45.656;11.302;2022-11-20T00:01:04;8.85;;;6.07;;
33160;SDS011;19522;45.656;11.302;2022-11-20T00:03:31;9.25;;;5.60;;
33160;SDS011;19522;45.656;11.302;2022-11-20T00:06:00;10.23;;;6.25;;
33160;SDS011;19522;45.656;11.302;2022-11-20T00:08:30;9.02;;;4.80;;
33160;SDS011;19522;45.656;11.302;2022-11-20T00:10:55;8.93;;;4.57;;
33160;SDS011;19522;45.656;11.302;2022-11-20T00:13:21;7.63;;;4.85;;
33160;SDS011;19522;45.656;11.302;2022-11-20T00:15:47;6.32;;;4.63;;
33160;SDS011;19522;45.656;11.302;2022-11-20T00:18:13;6.43;;;3.85;;
33160;SDS011;19522;45.656;11.302;2022-11-20T00:20:38;5.65;;;3.45;;
33160;SDS011;19522;45.656;11.302;2022-11-20T00:23:04;4.75;;;3.40;;
33160;SDS011;19522;45.656;11.302;2022-11-20T00:25:30;6.97;;;3.97;;
33160;SDS011;19522;45.656;11.302;2022-11-20T00:27:56;5.93;;;3.75;;
33160;SDS011;19522;45.656;11.302;2022-11-20T00:30:21;6.40;;;3.65;;
33160;SDS011;19522;45.656;11.302;2022-11-20T00:32:47;4.35;;;3.28;;
33160;SDS011;19522;45.656;11.302;2022-11-20T00:35:12;7.88;;;4.20;;
33160;SDS011;19522;45.656;11.302;2022-11-20T00:37:38;5.38;;;3.97;;
33160;SDS011;19522;45.656;11.302;2022-11-20T00:40:04;5.82;;;4.03;;
33160;SDS011;19522;45.656;11.302;2022-11-20T00:42:29;7.70;;;4.45;;
33160;SDS011;19522;45.656;11.302;2022-11-20T00:44:57;7.00;;;4.35;;
33160;SDS011;19522;45.656;11.302;2022-11-20T00:47:23;6.10;;;4.10;;
33160;SDS011;19522;45.656;11.302;2022-11-20T00:49:48;5.35;;;3.88;;
33160;SDS011;19522;45.656;11.302;2022-11-20T00:52:14;6.80;;;3.60;;
33160;SDS011;19522;45.656;11.302;2022-11-20T00:54:39;7.00;;;3.88;;
33160;SDS011;19522;45.656;11.302;2022-11-20T00:57:05;6.65;;;3.45;;
33160;SDS011;19522;45.656;11.302;2022-11-20T00:59:30;6.65;;;3.65;;
33160;SDS011;19522;45.656;11.302;2022-11-20T01:01:56;5.78;;;3.60;;
33160;SDS011;19522;45.656;11.302;2022-11-20T01:04:24;6.70;;;3.80;;
33160;SDS011;19522;45.656;11.302;2022-11-20T01:06:49;4.75;;;3.35;;
33160;SDS011;19522;45.656;11.302;2022-11-20T01:09:15;6.88;;;3.83;;
33160;SDS011;19522;45.656;11.302;2022-11-20T01:11:41;8.75;;;4.32;;
33160;SDS011;19522;45.656;11.302;2022-11-20T01:14:17;10.45;;;4.72;;
33160;SDS011;19522;45.656;11.302;2022-11-20T01:16:50;6.38;;;4.18;;
33160;SDS011;19522;45.656;11.302;2022-11-20T01:19:18;9.88;;;4.95;;
33160;SDS011;19522;45.656;11.302;2022-11-20T01:21:50;7.25;;;4.32;;
33160;SDS011;19522;45.656;11.302;2022-11-20T01:24:17;9.70;;;4.70;;
33160;SDS011;19522;45.656;11.302;2022-11-20T01:26:44;8.55;;;4.90;;
33160;SDS011;19522;45.656;11.302;2022-11-20T01:29:45;9.27;;;4.97;;
33160;SDS011;19522;45.656;11.302;2022-11-20T01:32:03;9.00;;;5.30;;
33160;SDS011;19522;45.656;11.302;2022-11-20T01:34:29;8.57;;;4.70;;
33160;SDS011;19522;45.656;11.302;2022-11-20T01:36:55;5.53;;;3.83;;
33160;SDS011;19522;45.656;11.302;2022-11-20T01:39:25;6.53;;;3.92;;
33160;SDS011;19522;45.656;11.302;2022-11-20T01:41:51;9.15;;;4.03;;
33160;SDS011;19522;45.656;11.302;2022-11-20T01:44:45;6.35;;;3.85;;
33160;SDS011;19522;45.656;11.302;2022-11-20T01:47:16;6.25;;;3.92;;
33160;SDS011;19522;45.656;11.302;2022-11-20T01:49:48;7.03;;;4.10;;
33160;SDS011;19522;45.656;11.302;2022-11-20T01:52:19;6.07;;;3.70;;
33160;SDS011;19522;45.656;11.302;2022-11-20T01:55:01;7.50;;;3.40;;
33160;SDS011;19522;45.656;11.302;2022-11-20T01:57:37;5.43;;;3.50;;
33160;SDS011;19522;45.656;11.302;2022-11-20T02:00:08;5.07;;;3.30;;
33160;SDS011;19522;45.656;11.302;2022-11-20T02:02:36;4.95;;;3.15;;
33160;SDS011;19522;45.656;11.302;2022-11-20T02:05:07;4.97;;;3.15;;
33160;SDS011;19522;45.656;11.302;2022-11-20T02:07:43;6.22;;;3.03;;
33160;SDS011;19522;45.656;11.302;2022-11-20T02:10:09;5.07;;;3.13;;
33160;SDS011;19522;45.656;11.302;2022-11-20T02:12:34;6.28;;;3.65;;
33160;SDS011;19522;45.656;11.302;2022-11-20T02:15:19;3.15;;;1.88;;
33160;SDS011;19522;45.656;11.302;2022-11-20T02:17:44;4.15;;;2.85;;
33160;SDS011;19522;45.656;11.302;2022-11-20T02:20:10;5.40;;;2.83;;
33160;SDS011;19522;45.656;11.302;2022-11-20T02:22:38;3.97;;;2.60;;
33160;SDS011;19522;45.656;11.302;2022-11-20T02:25:13;3.83;;;2.42;;
33160;SDS011;19522;45.656;11.302;2022-11-20T02:27:39;3.13;;;2.20;;
33160;SDS011;19522;45.656;11.302;2022-11-20T02:30:05;5.63;;;2.33;;
33160;SDS011;19522;45.656;11.302;2022-11-20T02:32:36;6.00;;;2.78;;
33160;SDS011;19522;45.656;11.302;2022-11-20T02:35:09;4.22;;;2.65;;
33160;SDS011;19522;45.656;11.302;2022-11-20T02:37:55;3.95;;;2.58;;
33160;SDS011;19522;45.656;11.302;2022-11-20T02:40:22;4.45;;;2.65;;
33160;SDS011;19522;45.656;11.302;2022-11-20T02:42:51;3.80;;;2.38;;
33160;SDS011;19522;45.656;11.302;2022-11-20T02:45:17;4.43;;;2.67;;
33160;SDS011;19522;45.656;11.302;2022-11-20T02:47:42;3.75;;;2.70;;
33160;SDS011;19522;45.656;11.302;2022-11-20T02:50:08;4.65;;;3.10;;
33160;SDS011;19522;45.656;11.302;2022-11-20T02:52:34;4.50;;;2.40;;
33160;SDS011;19522;45.656;11.302;2022-11-20T02:54:59;5.13;;;2.72;;
33160;SDS011;19522;45.656;11.302;2022-11-20T02:57:25;3.85;;;2.35;;
33160;SDS011;19522;45.656;11.302;2022-11-20T02:59:51;3.72;;;2.50;;
33160;SDS011;19522;45.656;11.302;2022-11-20T03:02:16;4.00;;;2.08;;
33160;SDS011;19522;45.656;11.302;2022-11-20T03:04:42;2.88;;;1.92;;
33160;SDS011;19522;45.656;11.302;2022-11-20T03:07:07;3.15;;;2.10;;
33160;SDS011;19522;45.656;11.302;2022-11-20T03:09:33;4.40;;;2.70;;
33160;SDS011;19522;45.656;11.302;2022-11-20T03:11:59;3.58;;;2.38;;
33160;SDS011;19522;45.656;11.302;2022-11-20T03:14:24;4.45;;;1.95;;
33160;SDS011;19522;45.656;11.302;2022-11-20T03:16:50;3.85;;;2.22;;
33160;SDS011;19522;45.656;11.302;2022-11-20T03:19:15;5.47;;;2.53;;
33160;SDS011;19522;45.656;11.302;2022-11-20T03:21:41;3.92;;;2.20;;
33160;SDS011;19522;45.656;11.302;2022-11-20T03:24:07;5.10;;;2.35;;
33160;SDS011;19522;45.656;11.302;2022-11-20T03:26:32;3.78;;;2.40;;
33160;SDS011;19522;45.656;11.302;2022-11-20T03:28:59;4.57;;;2.13;;
33160;SDS011;19522;45.656;11.302;2022-11-20T03:31:27;3.83;;;2.00;;
33160;SDS011;19522;45.656;11.302;2022-11-20T03:33:55;5.05;;;2.08;;
33160;SDS011;19522;45.656;11.302;2022-11-20T03:36:22;2.90;;;1.80;;
33160;SDS011;19522;45.656;11.302;2022-11-20T03:38:47;2.88;;;1.92;;
33160;SDS011;19522;45.656;11.302;2022-11-20T03:41:16;3.67;;;1.80;;
33160;SDS011;19522;45.656;11.302;2022-11-20T03:43:53;3.78;;;2.05;;
33160;SDS011;19522;45.656;11.302;2022-11-20T03:46:22;3.80;;;2.28;;
33160;SDS011;19522;45.656;11.302;2022-11-20T03:48:48;3.70;;;2.15;;
33160;SDS011;19522;45.656;11.302;2022-11-20T03:51:15;7.35;;;3.97;;
33160;SDS011;19522;45.656;11.302;2022-11-20T03:56:18;8.02;;;4.65;;
33160;SDS011;19522;45.656;11.302;2022-11-20T03:58:45;4.25;;;2.75;;
33160;SDS011;19522;45.656;11.302;2022-11-20T04:01:12;5.80;;;3.90;;
33160;SDS011;19522;45.656;11.302;2022-11-20T04:03:40;4.07;;;2.30;;
33160;SDS011;19522;45.656;11.302;2022-11-20T04:06:10;9.20;;;4.72;;
33160;SDS011;19522;45.656;11.302;2022-11-20T04:08:38;6.45;;;3.83;;
33160;SDS011;19522;45.656;11.302;2022-11-20T04:14:01;3.95;;;2.58;;
33160;SDS011;19522;45.656;11.302;2022-11-20T04:16:29;3.92;;;2.80;;
33160;SDS011;19522;45.656;11.302;2022-11-20T04:18:59;5.55;;;2.22;;
33160;SDS011;19522;45.656;11.302;2022-11-20T04:21:28;5.05;;;3.17;;
33160;SDS011;19522;45.656;11.302;2022-11-20T04:23:54;11.07;;;6.90;;
33160;SDS011;19522;45.656;11.302;2022-11-20T04:26:21;3.45;;;2.60;;
33160;SDS011;19522;45.656;11.302;2022-11-20T04:28:48;3.35;;;2.10;;
33160;SDS011;19522;45.656;11.302;2022-11-20T04:31:15;2.47;;;1.92;;
33160;SDS011;19522;45.656;11.302;2022-11-20T04:33:45;3.80;;;1.55;;
33160;SDS011;19522;45.656;11.302;2022-11-20T04:36:12;2.47;;;1.73;;
33160;SDS011;19522;45.656;11.302;2022-11-20T04:38:39;2.88;;;1.80;;
33160;SDS011;19522;45.656;11.302;2022-11-20T04:41:07;3.05;;;1.65;;
33160;SDS011;19522;45.656;11.302;2022-11-20T04:43:38;2.72;;;1.90;;
33160;SDS011;19522;45.656;11.302;2022-11-20T04:46:04;2.58;;;1.60;;
33160;SDS011;19522;45.656;11.302;2022-11-20T04:48:32;2.53;;;1.70;;
33160;SDS011;19522;45.656;11.302;2022-11-20T04:51:02;2.60;;;1.70;;
33160;SDS011;19522;45.656;11.302;2022-11-20T04:53:29;3.25;;;1.67;;
33160;SDS011;19522;45.656;11.302;2022-11-20T04:55:59;3.70;;;1.85;;
33160;SDS011;19522;45.656;11.302;2022-11-20T04:58:30;3.08;;;1.45;;
33160;SDS011;19522;45.656;11.302;2022-11-20T05:01:02;1.92;;;1.48;;
33160;SDS011;19522;45.656;11.302;2022-11-20T05:03:30;1.60;;;0.93;;
33160;SDS011;19522;45.656;11.302;2022-11-20T05:05:56;4.13;;;1.92;;
33160;SDS011;19522;45.656;11.302;2022-11-20T05:08:24;2.55;;;1.67;;
33160;SDS011;19522;45.656;11.302;2022-11-20T05:10:50;2.20;;;1.77;;
33160;SDS011;19522;45.656;11.302;2022-11-20T05:13:15;3.53;;;1.60;;
33160;SDS011;19522;45.656;11.302;2022-11-20T05:15:41;2.45;;;1.50;;
33160;SDS011;19522;45.656;11.302;2022-11-20T05:18:06;3.22;;;1.63;;
33160;SDS011;19522;45.656;11.302;2022-11-20T05:20:32;4.70;;;2.08;;
33160;SDS011;19522;45.656;11.302;2022-11-20T05:22:58;3.85;;;2.05;;
33160;SDS011;19522;45.656;11.302;2022-11-20T05:25:23;3.75;;;1.80;;
33160;SDS011;19522;45.656;11.302;2022-11-20T05:27:49;2.28;;;1.60;;
33160;SDS011;19522;45.656;11.302;2022-11-20T05:30:14;3.45;;;1.83;;
33160;SDS011;19522;45.656;11.302;2022-11-20T05:32:40;3.97;;;2.13;;
33160;SDS011;19522;45.656;11.302;2022-11-20T05:35:06;3.58;;;2.03;;
33160;SDS011;19522;45.656;11.302;2022-11-20T05:37:31;2.80;;;2.30;;
33160;SDS011;19522;45.656;11.302;2022-11-20T05:39:57;3.90;;;2.47;;
33160;SDS011;19522;45.656;11.302;2022-11-20T05:42:23;4.68;;;2.58;;
33160;SDS011;19522;45.656;11.302;2022-11-20T05:44:58;4.55;;;2.40;;
33160;SDS011;19522;45.656;11.302;2022-11-20T05:47:24;6.68;;;3.30;;
33160;SDS011;19522;45.656;11.302;2022-11-20T05:49:50;5.88;;;3.20;;
33160;SDS011;19522;45.656;11.302;2022-11-20T05:52:16;5.00;;;3.35;;
33160;SDS011;19522;45.656;11.302;2022-11-20T05:54:45;4.22;;;2.90;;
33160;SDS011;19522;45.656;11.302;2022-11-20T05:57:10;4.10;;;2.67;;
33160;SDS011;19522;45.656;11.302;2022-11-20T05:59:36;4.10;;;2.67;;
33160;SDS011;19522;45.656;11.302;2022-11-20T06:02:01;5.68;;;2.42;;
33160;SDS011;19522;45.656;11.302;2022-11-20T06:04:27;4.10;;;2.17;;
33160;SDS011;19522;45.656;11.302;2022-11-20T06:06:52;4.13;;;2.80;;
33160;SDS011;19522;45.656;11.302;2022-11-20T06:09:18;4.03;;;2.33;;
33160;SDS011;19522;45.656;11.302;2022-11-20T06:11:43;4.10;;;2.40;;
33160;SDS011;19522;45.656;11.302;2022-11-20T06:14:09;5.43;;;2.88;;
33160;SDS011;19522;45.656;11.302;2022-11-20T06:16:34;3.15;;;2.33;;
33160;SDS011;19522;45.656;11.302;2022-11-20T06:19:00;4.45;;;2.65;;
33160;SDS011;19522;45.656;11.302;2022-11-20T06:21:25;5.50;;;2.53;;
33160;SDS011;19522;45.656;11.302;2022-11-20T06:23:51;4.63;;;2.55;;
33160;SDS011;19522;45.656;11.302;2022-11-20T06:26:18;3.80;;;2.55;;
33160;SDS011;19522;45.656;11.302;2022-11-20T06:28:46;4.05;;;2.30;;
33160;SDS011;19522;45.656;11.302;2022-11-20T06:31:13;3.50;;;2.00;;
33160;SDS011;19522;45.656;11.302;2022-11-20T06:33:39;4.28;;;2.47;;
33160;SDS011;19522;45.656;11.302;2022-11-20T06:36:06;2.75;;;2.05;;
33160;SDS011;19522;45.656;11.302;2022-11-20T06:38:32;3.13;;;2.13;;
33160;SDS011;19522;45.656;11.302;2022-11-20T06:40:58;3.58;;;2.42;;
33160;SDS011;19522;45.656;11.302;2022-11-20T06:43:23;6.75;;;2.22;;
33160;SDS011;19522;45.656;11.302;2022-11-20T06:45:56;4.13;;;2.10;;
33160;SDS011;19522;45.656;11.302;2022-11-20T06:48:23;4.70;;;2.40;;
33160;SDS011;19522;45.656;11.302;2022-11-20T06:50:50;2.97;;;2.30;;
33160;SDS011;19522;45.656;11.302;2022-11-20T06:53:16;3.42;;;2.40;;
33160;SDS011;19522;45.656;11.302;2022-11-20T06:55:42;4.53;;;2.95;;
33160;SDS011;19522;45.656;11.302;2022-11-20T06:58:09;4.28;;;2.92;;
33160;SDS011;19522;45.656;11.302;2022-11-20T07:00:34;4.65;;;2.50;;
33160;SDS011;19522;45.656;11.302;2022-11-20T07:03:07;4.75;;;3.20;;
33160;SDS011;19522;45.656;11.302;2022-11-20T07:05:34;3.30;;;2.17;;
33160;SDS011;19522;45.656;11.302;2022-11-20T07:08:01;3.83;;;2.58;;
33160;SDS011;19522;45.656;11.302;2022-11-20T07:10:27;4.07;;;2.92;;
33160;SDS011;19522;45.656;11.302;2022-11-20T07:12:52;4.68;;;3.40;;
33160;SDS011;19522;45.656;11.302;2022-11-20T07:15:19;5.70;;;3.92;;
33160;SDS011;19522;45.656;11.302;2022-11-20T07:17:45;5.85;;;4.07;;
33160;SDS011;19522;45.656;11.302;2022-11-20T07:20:11;9.65;;;5.35;;
33160;SDS011;19522;45.656;11.302;2022-11-20T07:22:37;8.00;;;4.15;;
33160;SDS011;19522;45.656;11.302;2022-11-20T07:25:03;7.70;;;4.38;;
33160;SDS011;19522;45.656;11.302;2022-11-20T07:27:29;8.38;;;5.80;;
33160;SDS011;19522;45.656;11.302;2022-11-20T07:29:55;7.93;;;5.25;;
33160;SDS011;19522;45.656;11.302;2022-11-20T07:32:21;8.45;;;4.93;;
33160;SDS011;19522;45.656;11.302;2022-11-20T07:34:46;8.45;;;5.13;;
33160;SDS011;19522;45.656;11.302;2022-11-20T07:37:12;8.07;;;5.18;;
33160;SDS011;19522;45.656;11.302;2022-11-20T07:39:38;10.20;;;5.80;;
33160;SDS011;19522;45.656;11.302;2022-11-20T07:42:04;7.93;;;5.75;;
33160;SDS011;19522;45.656;11.302;2022-11-20T07:44:30;7.65;;;5.10;;
33160;SDS011;19522;45.656;11.302;2022-11-20T07:46:56;6.72;;;4.70;;
33160;SDS011;19522;45.656;11.302;2022-11-20T07:49:21;8.55;;;5.47;;
33160;SDS011;19522;45.656;11.302;2022-11-20T07:51:47;6.25;;;4.68;;
33160;SDS011;19522;45.656;11.302;2022-11-20T07:54:15;7.07;;;4.57;;
33160;SDS011;19522;45.656;11.302;2022-11-20T07:56:41;7.80;;;5.20;;
33160;SDS011;19522;45.656;11.302;2022-11-20T07:59:06;9.45;;;5.13;;
33160;SDS011;19522;45.656;11.302;2022-11-20T08:01:32;7.72;;;5.43;;
33160;SDS011;19522;45.656;11.302;2022-11-20T08:03:57;7.13;;;5.15;;
33160;SDS011;19522;45.656;11.302;2022-11-20T08:06:23;10.18;;;5.28;;
33160;SDS011;19522;45.656;11.302;2022-11-20T08:08:49;8.35;;;4.75;;
33160;SDS011;19522;45.656;11.302;2022-11-20T08:11:16;8.95;;;5.38;;
33160;SDS011;19522;45.656;11.302;2022-11-20T08:14:13;6.95;;;4.32;;
33160;SDS011;19522;45.656;11.302;2022-11-20T08:16:46;6.28;;;4.32;;
33160;SDS011;19522;45.656;11.302;2022-11-20T08:19:13;8.50;;;4.30;;
33160;SDS011;19522;45.656;11.302;2022-11-20T08:21:40;6.18;;;4.22;;
33160;SDS011;19522;45.656;11.302;2022-11-20T08:24:06;6.30;;;4.30;;
33160;SDS011;19522;45.656;11.302;2022-11-20T08:26:32;6.75;;;4.30;;
33160;SDS011;19522;45.656;11.302;2022-11-20T08:28:58;21.17;;;12.05;;
33160;SDS011;19522;45.656;11.302;2022-11-20T08:31:25;5.60;;;3.72;;
33160;SDS011;19522;45.656;11.302;2022-11-20T08:33:52;6.80;;;3.53;;
33160;SDS011;19522;45.656;11.302;2022-11-20T08:36:18;6.60;;;3.45;;
33160;SDS011;19522;45.656;11.302;2022-11-20T08:38:48;5.60;;;3.63;;
33160;SDS011;19522;45.656;11.302;2022-11-20T08:41:15;5.80;;;3.70;;
33160;SDS011;19522;45.656;11.302;2022-11-20T08:43:57;4.93;;;3.47;;
33160;SDS011;19522;45.656;11.302;2022-11-20T08:46:25;5.07;;;3.45;;
33160;SDS011;19522;45.656;11.302;2022-11-20T08:48:52;5.75;;;3.30;;
33160;SDS011;19522;45.656;11.302;2022-11-20T08:51:19;4.53;;;3.00;;
33160;SDS011;19522;45.656;11.302;2022-11-20T08:53:45;5.40;;;3.80;;
33160;SDS011;19522;45.656;11.302;2022-11-20T08:56:12;5.13;;;4.05;;
33160;SDS011;19522;45.656;11.302;2022-11-20T08:58:38;4.97;;;3.92;;
33160;SDS011;19522;45.656;11.302;2022-11-20T09:01:04;6.30;;;3.90;;
33160;SDS011;19522;45.656;11.302;2022-11-20T09:03:29;8.48;;;4.38;;
33160;SDS011;19522;45.656;11.302;2022-11-20T09:05:56;6.00;;;4.15;;
33160;SDS011;19522;45.656;11.302;2022-11-20T09:08:27;7.28;;;4.60;;
33160;SDS011;19522;45.656;11.302;2022-11-20T09:10:53;7.68;;;4.10;;
33160;SDS011;19522;45.656;11.302;2022-11-20T09:13:20;7.18;;;4.85;;
33160;SDS011;19522;45.656;11.302;2022-11-20T09:15:46;8.93;;;4.82;;
33160;SDS011;19522;45.656;11.302;2022-11-20T09:18:12;6.32;;;4.38;;
33160;SDS011;19522;45.656;11.302;2022-11-20T09:20:38;7.75;;;4.90;;
33160;SDS011;19522;45.656;11.302;2022-11-20T09:23:03;6.85;;;4.43;;
33160;SDS011;19522;45.656;11.302;2022-11-20T09:25:29;6.45;;;4.18;;
33160;SDS011;19522;45.656;11.302;2022-11-20T09:27:57;7.43;;;4.93;;
33160;SDS011;19522;45.656;11.302;2022-11-20T09:30:23;6.60;;;4.32;;
33160;SDS011;19522;45.656;11.302;2022-11-20T09:32:49;6.78;;;4.20;;
33160;SDS011;19522;45.656;11.302;2022-11-20T09:35:15;6.78;;;4.25;;
33160;SDS011;19522;45.656;11.302;2022-11-20T09:37:41;7.32;;;4.68;;
33160;SDS011;19522;45.656;11.302;2022-11-20T09:40:21;6.28;;;4.22;;
33160;SDS011;19522;45.656;11.302;2022-11-20T09:45:24;7.15;;;3.40;;
33160;SDS011;19522;45.656;11.302;2022-11-20T09:52:18;7.53;;;4.93;;
33160;SDS011;19522;45.656;11.302;2022-11-20T09:54:18;5.00;;;3.03;;
33160;SDS011;19522;45.656;11.302;2022-11-20T09:56:50;6.07;;;3.50;;
33160;SDS011;19522;45.656;11.302;2022-11-20T09:59:23;9.17;;;3.10;;
33160;SDS011;19522;45.656;11.302;2022-11-20T10:01:57;5.53;;;3.47;;
33160;SDS011;19522;45.656;11.302;2022-11-20T10:04:25;5.15;;;3.33;;
33160;SDS011;19522;45.656;11.302;2022-11-20T10:09:36;4.72;;;2.95;;
33160;SDS011;19522;45.656;11.302;2022-11-20T10:19:54;5.82;;;4.55;;
33160;SDS011;19522;45.656;11.302;2022-11-20T10:22:26;5.75;;;4.13;;
33160;SDS011;19522;45.656;11.302;2022-11-20T10:25:06;7.25;;;3.97;;
33160;SDS011;19522;45.656;11.302;2022-11-20T10:28:00;6.10;;;3.70;;
33160;SDS011;19522;45.656;11.302;2022-11-20T10:30:37;5.97;;;3.60;;
33160;SDS011;19522;45.656;11.302;2022-11-20T10:38:35;4.45;;;2.72;;
33160;SDS011;19522;45.656;11.302;2022-11-20T10:41:05;4.15;;;2.97;;
33160;SDS011;19522;45.656;11.302;2022-11-20T10:46:24;4.95;;;3.10;;
33160;SDS011;19522;45.656;11.302;2022-11-20T10:48:55;4.40;;;3.20;;
33160;SDS011;19522;45.656;11.302;2022-11-20T10:53:57;4.90;;;3.05;;
33160;SDS011;19522;45.656;11.302;2022-11-20T10:59:03;4.25;;;2.88;;
33160;SDS011;19522;45.656;11.302;2022-11-20T11:01:30;5.07;;;3.70;;
33160;SDS011;19522;45.656;11.302;2022-11-20T11:03:55;4.80;;;3.10;;
33160;SDS011;19522;45.656;11.302;2022-11-20T11:08:58;6.63;;;3.00;;
33160;SDS011;19522;45.656;11.302;2022-11-20T11:11:34;4.97;;;3.70;;
33160;SDS011;19522;45.656;11.302;2022-11-20T11:14:10;5.65;;;3.40;;
33160;SDS011;19522;45.656;11.302;2022-11-20T11:16:48;4.95;;;3.25;;
33160;SDS011;19522;45.656;11.302;2022-11-20T11:19:16;11.85;;;3.75;;
33160;SDS011;19522;45.656;11.302;2022-11-20T11:21:49;6.82;;;3.58;;
33160;SDS011;19522;45.656;11.302;2022-11-20T11:27:01;6.22;;;3.88;;
33160;SDS011;19522;45.656;11.302;2022-11-20T11:29:32;5.40;;;3.72;;
33160;SDS011;19522;45.656;11.302;2022-11-20T11:34:40;8.00;;;4.88;;
33160;SDS011;19522;45.656;11.302;2022-11-20T11:37:24;6.05;;;4.03;;
33160;SDS011;19522;45.656;11.302;2022-11-20T11:39:57;8.57;;;5.30;;
33160;SDS011;19522;45.656;11.302;2022-11-20T11:42:23;7.22;;;4.20;;
33160;SDS011;19522;45.656;11.302;2022-11-20T11:44:49;7.85;;;4.88;;
33160;SDS011;19522;45.656;11.302;2022-11-20T11:52:46;6.63;;;4.25;;
33160;SDS011;19522;45.656;11.302;2022-11-20T11:55:31;8.95;;;5.03;;
33160;SDS011;19522;45.656;11.302;2022-11-20T12:05:47;6.28;;;3.90;;
33160;SDS011;19522;45.656;11.302;2022-11-20T12:08:26;6.15;;;3.60;;
33160;SDS011;19522;45.656;11.302;2022-11-20T12:13:54;6.30;;;3.80;;
33160;SDS011;19522;45.656;11.302;2022-11-20T12:16:26;7.95;;;4.00;;
33160;SDS011;19522;45.656;11.302;2022-11-20T12:19:01;5.93;;;3.47;;
33160;SDS011;19522;45.656;11.302;2022-11-20T12:21:48;5.50;;;3.33;;
33160;SDS011;19522;45.656;11.302;2022-11-20T12:30:15;5.70;;;3.70;;
33160;SDS011;19522;45.656;11.302;2022-11-20T12:43:19;5.35;;;2.70;;
33160;SDS011;19522;45.656;11.302;2022-11-20T12:57:50;6.68;;;3.95;;
33160;SDS011;19522;45.656;11.302;2022-11-20T13:00:20;6.25;;;3.72;;
33160;SDS011;19522;45.656;11.302;2022-11-20T13:08:33;5.77;;;4.33;;
33160;SDS011;19522;45.656;11.302;2022-11-20T13:19:13;7.13;;;4.68;;
33160;SDS011;19522;45.656;11.302;2022-11-20T13:27:01;5.97;;;4.05;;
33160;SDS011;19522;45.656;11.302;2022-11-20T13:29:44;5.70;;;4.53;;
33160;SDS011;19522;45.656;11.302;2022-11-20T13:32:15;6.03;;;4.57;;
33160;SDS011;19522;45.656;11.302;2022-11-20T13:34:53;6.40;;;4.28;;
33160;SDS011;19522;45.656;11.302;2022-11-20T13:37:38;7.05;;;4.90;;
33160;SDS011;19522;45.656;11.302;2022-11-20T13:40:05;7.28;;;4.57;;
33160;SDS011;19522;45.656;11.302;2022-11-20T13:42:38;5.70;;;4.15;;
33160;SDS011;19522;45.656;11.302;2022-11-20T13:45:11;6.05;;;4.22;;
33160;SDS011;19522;45.656;11.302;2022-11-20T13:47:48;6.93;;;4.43;;
33160;SDS011;19522;45.656;11.302;2022-11-20T13:50:15;7.47;;;5.07;;
33160;SDS011;19522;45.656;11.302;2022-11-20T13:52:57;6.20;;;4.00;;
33160;SDS011;19522;45.656;11.302;2022-11-20T13:55:54;6.05;;;3.95;;
33160;SDS011;19522;45.656;11.302;2022-11-20T14:01:26;7.20;;;4.55;;
33160;SDS011;19522;45.656;11.302;2022-11-20T14:06:26;5.15;;;3.88;;
33160;SDS011;19522;45.656;11.302;2022-11-20T14:08:54;8.45;;;4.63;;
33160;SDS011;19522;45.656;11.302;2022-11-20T14:11:20;7.90;;;5.03;;
33160;SDS011;19522;45.656;11.302;2022-11-20T14:16:29;6.85;;;4.60;;
33160;SDS011;19522;45.656;11.302;2022-11-20T14:19:17;6.57;;;4.50;;
33160;SDS011;19522;45.656;11.302;2022-11-20T14:21:44;7.63;;;4.88;;
33160;SDS011;19522;45.656;11.302;2022-11-20T14:24:18;7.47;;;4.47;;
33160;SDS011;19522;45.656;11.302;2022-11-20T14:26:45;7.25;;;5.13;;
33160;SDS011;19522;45.656;11.302;2022-11-20T14:29:18;8.73;;;5.32;;
33160;SDS011;19522;45.656;11.302;2022-11-20T14:31:47;7.05;;;4.70;;
33160;SDS011;19522;45.656;11.302;2022-11-20T14:34:18;7.68;;;4.50;;
33160;SDS011;19522;45.656;11.302;2022-11-20T14:36:50;7.93;;;4.68;;
33160;SDS011;19522;45.656;11.302;2022-11-20T14:39:21;6.22;;;3.92;;
33160;SDS011;19522;45.656;11.302;2022-11-20T14:41:50;5.85;;;4.30;;
33160;SDS011;19522;45.656;11.302;2022-11-20T14:44:17;7.70;;;4.50;;
33160;SDS011;19522;45.656;11.302;2022-11-20T14:46:45;6.35;;;4.35;;
33160;SDS011;19522;45.656;11.302;2022-11-20T14:49:10;6.68;;;4.55;;
33160;SDS011;19522;45.656;11.302;2022-11-20T14:51:37;6.85;;;5.18;;
33160;SDS011;19522;45.656;11.302;2022-11-20T14:56:52;7.97;;;5.10;;
33160;SDS011;19522;45.656;11.302;2022-11-20T14:59:29;8.02;;;5.18;;
33160;SDS011;19522;45.656;11.302;2022-11-20T15:01:57;9.30;;;5.80;;
33160;SDS011;19522;45.656;11.302;2022-11-20T15:04:29;7.07;;;5.32;;
33160;SDS011;19522;45.656;11.302;2022-11-20T15:06:56;7.22;;;5.13;;
33160;SDS011;19522;45.656;11.302;2022-11-20T15:09:23;7.78;;;4.63;;
33160;SDS011;19522;45.656;11.302;2022-11-20T15:11:59;8.90;;;6.00;;
33160;SDS011;19522;45.656;11.302;2022-11-20T15:14:27;9.85;;;6.57;;
33160;SDS011;19522;45.656;11.302;2022-11-20T15:16:57;10.55;;;6.75;;
33160;SDS011;19522;45.656;11.302;2022-11-20T15:19:24;10.68;;;6.95;;
33160;SDS011;19522;45.656;11.302;2022-11-20T15:21:51;12.52;;;8.13;;
33160;SDS011;19522;45.656;11.302;2022-11-20T15:24:17;11.23;;;7.85;;
33160;SDS011;19522;45.656;11.302;2022-11-20T15:26:43;11.55;;;8.18;;
33160;SDS011;19522;45.656;11.302;2022-11-20T15:29:09;11.55;;;8.25;;
33160;SDS011;19522;45.656;11.302;2022-11-20T15:31:37;12.48;;;8.65;;
33160;SDS011;19522;45.656;11.302;2022-11-20T15:34:09;12.40;;;9.00;;
33160;SDS011;19522;45.656;11.302;2022-11-20T15:36:36;14.00;;;10.15;;
33160;SDS011;19522;45.656;11.302;2022-11-20T15:39:05;16.27;;;10.73;;
33160;SDS011;19522;45.656;11.302;2022-11-20T15:41:32;14.75;;;9.93;;
33160;SDS011;19522;45.656;11.302;2022-11-20T15:43:58;13.80;;;10.02;;
33160;SDS011;19522;45.656;11.302;2022-11-20T15:46:28;14.85;;;9.55;;
33160;SDS011;19522;45.656;11.302;2022-11-20T15:48:58;14.80;;;9.77;;
33160;SDS011;19522;45.656;11.302;2022-11-20T15:51:29;13.32;;;8.73;;
33160;SDS011;19522;45.656;11.302;2022-11-20T15:53:56;12.32;;;9.07;;
33160;SDS011;19522;45.656;11.302;2022-11-20T15:56:23;12.52;;;8.70;;
33160;SDS011;19522;45.656;11.302;2022-11-20T15:58:49;11.85;;;8.82;;
33160;SDS011;19522;45.656;11.302;2022-11-20T16:01:18;13.50;;;8.82;;
33160;SDS011;19522;45.656;11.302;2022-11-20T16:03:46;14.05;;;9.27;;
33160;SDS011;19522;45.656;11.302;2022-11-20T16:06:12;14.90;;;10.25;;
33160;SDS011;19522;45.656;11.302;2022-11-20T16:08:38;17.25;;;11.80;;
33160;SDS011;19522;45.656;11.302;2022-11-20T16:11:03;16.73;;;11.82;;
33160;SDS011;19522;45.656;11.302;2022-11-20T16:13:30;16.85;;;10.63;;
33160;SDS011;19522;45.656;11.302;2022-11-20T16:16:22;15.80;;;9.93;;
33160;SDS011;19522;45.656;11.302;2022-11-20T16:18:53;14.75;;;9.27;;
33160;SDS011;19522;45.656;11.302;2022-11-20T16:21:19;13.40;;;8.85;;
33160;SDS011;19522;45.656;11.302;2022-11-20T16:23:45;16.73;;;10.05;;
33160;SDS011;19522;45.656;11.302;2022-11-20T16:26:13;15.23;;;9.23;;
33160;SDS011;19522;45.656;11.302;2022-11-20T16:28:41;12.10;;;9.40;;
33160;SDS011;19522;45.656;11.302;2022-11-20T16:31:15;16.33;;;11.00;;
33160;SDS011;19522;45.656;11.302;2022-11-20T16:33:49;14.63;;;11.27;;
33160;SDS011;19522;45.656;11.302;2022-11-20T16:36:16;16.60;;;11.38;;
33160;SDS011;19522;45.656;11.302;2022-11-20T16:38:42;16.98;;;11.40;;
33160;SDS011;19522;45.656;11.302;2022-11-20T16:41:08;16.08;;;11.75;;